Aguilar, Colorado
Current Conditions -  °F | °C
As of 12:54 PM on Sunday 25 Jan 2015 (Local Time) from KTAD Reporting Station
Clear Clear  
Wind Chill: 10°   Ceiling: Unl
Heat Index: 10°   Visibility: 10mi
Dew Point: -2°   Wind: 6mph
Humidity: 44%   Direction: 140°SE
Pressure: 30.19"   Gusts: NA
Location:  37.4°N, 104.65°W
Report Text: KTAD 251954Z AUTO 14005KT 10SM CLR 10/M02 A3019 RMK AO2 SLP209 T01001017
Loading
Personal Weather Stations






























Interactive Weather Map New forecast layout! Learn more

10-Day Weather Forecast

Advertisements
Track Severe Weather on mobile